createdAt,value
2019-01-23T00:00:32.176Z,53.98
2019-01-23T00:03:00.508Z,51.02
2019-01-23T00:05:28.890Z,55.45
2019-01-23T00:07:57.247Z,52.20
2019-01-23T00:10:25.568Z,50.88
2019-01-23T00:12:53.898Z,54.18
2019-01-23T00:15:22.377Z,53.23
2019-01-23T00:17:50.867Z,50.65
2019-01-23T00:20:19.193Z,50.28
2019-01-23T00:22:47.524Z,51.15
2019-01-23T00:25:15.972Z,47.65
2019-01-23T00:27:44.379Z,55.73
2019-01-23T00:30:14.433Z,51.58
2019-01-23T00:32:42.954Z,53.87
2019-01-23T00:35:11.451Z,56.13
2019-01-23T00:37:39.788Z,49.35
2019-01-23T00:40:11.512Z,53.05
2019-01-23T00:42:40.056Z,51.02
2019-01-23T00:45:11.088Z,51.42
2019-01-23T00:47:39.397Z,55.38
2019-01-23T00:50:09.942Z,57.17
2019-01-23T00:52:39.366Z,48.63
2019-01-23T00:55:10.904Z,57.93
2019-01-23T00:57:39.229Z,58.75
2019-01-23T01:00:22.081Z,50.67
2019-01-23T01:02:50.641Z,48.23
2019-01-23T01:05:19.341Z,55.05
2019-01-23T01:07:47.816Z,50.88
2019-01-23T01:10:18.284Z,53.83
2019-01-23T01:12:46.995Z,57.75
2019-01-23T01:15:16.257Z,48.83
2019-01-23T01:17:44.909Z,51.77
2019-01-23T01:20:15.190Z,46.05
2019-01-23T01:22:43.647Z,55.55
2019-01-23T01:25:14.887Z,53.63
2019-01-23T01:27:43.252Z,54.33
2019-01-23T01:30:22.823Z,53.60
2019-01-23T01:32:52.020Z,55.67
2019-01-23T01:35:20.487Z,55.43
2019-01-23T01:37:48.980Z,57.95
2019-01-23T01:40:18.841Z,48.58
2019-01-23T01:42:47.247Z,46.42
2019-01-23T01:45:16.583Z,50.63
2019-01-23T01:47:45.054Z,49.67
2019-01-23T01:50:18.145Z,45.17
2019-01-23T01:52:46.642Z,49.33
2019-01-23T01:55:15.006Z,48.38
2019-01-23T01:57:43.417Z,59.67
2019-01-23T02:00:14.548Z,52.27
2019-01-23T02:02:42.948Z,54.03
2019-01-23T02:05:11.345Z,45.30
2019-01-23T02:07:39.676Z,51.10
2019-01-23T02:10:13.721Z,49.45
2019-01-23T02:12:42.099Z,56.85
2019-01-23T02:15:12.335Z,50.55
2019-01-23T02:17:40.764Z,55.40
2019-01-23T02:20:16.767Z,58.23
2019-01-23T02:22:47.005Z,51.68
2019-01-23T02:25:17.084Z,54.30
2019-01-23T02:27:48.051Z,51.98
2019-01-23T02:30:20.225Z,53.63
2019-01-23T02:32:50.778Z,51.53
2019-01-23T02:35:20.965Z,53.73
2019-01-23T02:37:51.222Z,62.93
2019-01-23T02:40:22.193Z,50.58
2019-01-23T02:42:50.699Z,49.13
2019-01-23T02:45:20.767Z,52.05
2019-01-23T02:47:50.545Z,50.73
2019-01-23T02:50:20.729Z,47.50
2019-01-23T02:52:50.869Z,47.33
2019-01-23T02:55:21.159Z,50.28
2019-01-23T02:57:51.372Z,45.85
2019-01-23T03:00:21.892Z,52.15
2019-01-23T03:02:51.994Z,49.73
2019-01-23T03:05:22.610Z,48.90
2019-01-23T03:07:52.042Z,51.58
2019-01-23T03:10:23.045Z,53.15
2019-01-23T03:12:53.125Z,49.73
2019-01-23T03:15:23.189Z,51.83
2019-01-23T03:17:53.473Z,57.08
2019-01-23T03:20:23.056Z,53.73
2019-01-23T03:22:52.983Z,48.65
2019-01-23T03:25:23.289Z,51.95
2019-01-23T03:27:54.248Z,52.95
2019-01-23T03:30:24.720Z,56.02
2019-01-23T03:32:54.685Z,51.20
2019-01-23T03:35:24.179Z,54.23
2019-01-23T03:37:54.558Z,52.27
2019-01-23T03:40:44.525Z,51.63
2019-01-23T03:43:14.630Z,50.90
2019-01-23T03:45:44.868Z,52.40
2019-01-23T03:48:15.186Z,53.87
2019-01-23T03:50:45.376Z,55.28
2019-01-23T03:53:15.712Z,50.03
2019-01-23T03:55:46.218Z,49.60
2019-01-23T03:58:15.422Z,51.08
2019-01-23T04:00:45.624Z,53.25
2019-01-23T04:03:15.477Z,58.90
2019-01-23T04:05:44.378Z,49.88
2019-01-23T04:08:14.363Z,53.58
2019-01-23T04:10:43.463Z,44.73
2019-01-23T04:13:11.903Z,50.63
2019-01-23T04:15:40.624Z,53.50
2019-01-23T04:18:11.008Z,52.95
2019-01-23T04:20:42.029Z,53.00
2019-01-23T04:23:13.031Z,47.20
2019-01-23T04:25:43.465Z,52.75
2019-01-23T04:28:12.328Z,50.05
2019-01-23T04:30:42.492Z,52.70
2019-01-23T04:33:12.746Z,62.75
2019-01-23T04:35:42.874Z,53.48
2019-01-23T04:38:11.492Z,56.60
2019-01-23T04:40:40.135Z,57.30
2019-01-23T04:43:08.894Z,52.83
2019-01-23T04:45:37.838Z,52.78
2019-01-23T04:48:06.568Z,53.87
2019-01-23T04:50:38.025Z,58.98
2019-01-23T04:53:11.872Z,49.60
2019-01-23T04:55:41.193Z,45.48
2019-01-23T04:58:11.391Z,52.75
2019-01-23T05:00:41.578Z,51.28
2019-01-23T05:03:11.080Z,57.60
2019-01-23T05:05:41.683Z,48.58
2019-01-23T05:08:10.781Z,59.05
2019-01-23T05:10:41.250Z,50.88
2019-01-23T05:13:10.704Z,53.13
2019-01-23T05:15:40.604Z,57.80
2019-01-23T05:18:10.663Z,60.92
2019-01-23T05:20:40.888Z,58.52
2019-01-23T05:23:10.905Z,64.00
2019-01-23T05:25:40.835Z,58.35
2019-01-23T05:28:10.793Z,65.30
2019-01-23T05:30:41.148Z,72.42
2019-01-23T05:36:01.340Z,72.70
2019-01-23T05:38:31.259Z,71.62
2019-01-23T05:41:01.506Z,77.85
2019-01-23T05:43:31.409Z,73.75
2019-01-23T05:46:01.579Z,72.17
2019-01-23T05:48:30.242Z,59.05
2019-01-23T05:51:00.882Z,59.42
2019-01-23T05:53:30.724Z,64.05
2019-01-23T05:56:00.646Z,52.27
2019-01-23T05:58:30.438Z,60.95
2019-01-23T06:01:21.106Z,47.55
2019-01-23T06:03:49.904Z,51.13
2019-01-23T06:06:18.802Z,50.45
2019-01-23T06:08:48.672Z,55.17
2019-01-23T06:11:19.382Z,50.38
2019-01-23T06:13:49.482Z,56.68
2019-01-23T06:16:19.474Z,52.53
2019-01-23T06:18:49.735Z,52.73
2019-01-23T06:21:20.111Z,61.90
2019-01-23T06:23:50.621Z,53.00
2019-01-23T06:26:20.797Z,58.63
2019-01-23T06:28:51.452Z,62.83
2019-01-23T06:31:21.633Z,115.72
2019-01-23T06:33:50.943Z,86.70
2019-01-23T06:36:41.470Z,74.07
2019-01-23T06:39:12.789Z,94.90
2019-01-23T06:41:44.924Z,88.90
2019-01-23T06:44:18.064Z,75.92
2019-01-23T06:46:47.991Z,79.17
2019-01-23T06:49:37.803Z,85.62
2019-01-23T06:52:06.808Z,73.45
2019-01-23T06:54:37.061Z,77.78
2019-01-23T06:57:06.151Z,77.65
2019-01-23T06:59:35.337Z,69.97
2019-01-23T07:02:04.926Z,72.15
2019-01-23T07:04:34.603Z,72.32
2019-01-23T07:07:04.771Z,73.85
2019-01-23T07:09:35.903Z,76.22
2019-01-23T07:12:05.736Z,67.03
2019-01-23T07:14:36.207Z,69.00
2019-01-23T07:17:06.129Z,72.75
2019-01-23T07:19:36.560Z,66.75
2019-01-23T07:22:06.609Z,74.72
2019-01-23T07:24:36.969Z,60.35
2019-01-23T07:27:07.485Z,67.05
2019-01-23T07:29:38.041Z,57.65
2019-01-23T07:32:09.533Z,70.90
2019-01-23T07:34:40.924Z,69.47
2019-01-23T07:37:31.203Z,60.63
2019-01-23T07:40:01.655Z,117.03
2019-01-23T07:42:31.791Z,128.60
2019-01-23T07:45:02.326Z,117.00
2019-01-23T07:47:32.507Z,91.72
2019-01-23T07:50:03.031Z,71.75
2019-01-23T07:52:33.370Z,73.80
2019-01-23T07:55:01.908Z,75.00
2019-01-23T07:57:52.377Z,66.82
2019-01-23T08:00:31.521Z,62.33
2019-01-23T08:02:59.349Z,72.42
2019-01-23T08:05:29.873Z,68.52
2019-01-23T08:07:59.713Z,64.27
2019-01-23T08:10:30.176Z,64.22
2019-01-23T08:13:00.308Z,64.85
2019-01-23T08:15:35.162Z,66.55
2019-01-23T08:18:06.596Z,68.80
2019-01-23T08:20:36.870Z,69.72
2019-01-23T08:23:06.998Z,63.05
2019-01-23T08:25:37.382Z,70.70
2019-01-23T08:28:07.766Z,66.87
2019-01-23T08:30:39.207Z,72.05
2019-01-23T08:33:09.686Z,62.67
2019-01-23T08:35:39.970Z,61.37
2019-01-23T08:38:10.249Z,74.58
2019-01-23T08:40:40.303Z,71.57
2019-01-23T08:43:10.772Z,67.80
2019-01-23T08:45:40.735Z,63.68
2019-01-23T08:48:10.391Z,67.50
2019-01-23T08:50:41.523Z,68.28
2019-01-23T08:53:12.132Z,56.55
2019-01-23T08:55:42.027Z,59.13
2019-01-23T08:58:12.483Z,55.58
2019-01-23T09:00:45.936Z,55.80
2019-01-23T09:03:14.270Z,58.05
2019-01-23T09:05:44.684Z,54.38
2019-01-23T09:08:14.917Z,52.33
2019-01-23T09:10:44.717Z,63.15
2019-01-23T09:13:15.155Z,62.78
2019-01-23T09:15:45.135Z,56.70
2019-01-23T09:18:15.414Z,55.17
2019-01-23T09:20:45.521Z,53.00
2019-01-23T09:23:15.782Z,57.90
2019-01-23T09:25:49.659Z,52.78
2019-01-23T09:28:17.618Z,60.00
2019-01-23T09:30:54.552Z,57.33
2019-01-23T09:33:30.497Z,53.78
2019-01-23T09:36:34.798Z,64.77
2019-01-23T09:39:15.439Z,62.75
2019-01-23T09:41:54.018Z,62.88
2019-01-23T09:44:26.759Z,60.08
2019-01-23T09:47:17.159Z,63.55
2019-01-23T09:50:10.633Z,51.73
2019-01-23T09:53:00.531Z,58.40
2019-01-23T09:55:29.662Z,63.85
2019-01-23T09:57:59.052Z,54.45
2019-01-23T10:00:31.743Z,53.55
2019-01-23T10:03:00.827Z,56.37
2019-01-23T10:05:39.640Z,60.48
2019-01-23T10:08:09.197Z,58.98
2019-01-23T10:10:44.422Z,66.50
2019-01-23T10:13:17.273Z,56.65
2019-01-23T10:15:52.433Z,57.65
2019-01-23T10:18:21.962Z,63.20
2019-01-23T10:20:55.231Z,55.43
2019-01-23T10:23:24.308Z,51.53
2019-01-23T10:25:53.861Z,53.40
2019-01-23T10:28:23.210Z,59.77
2019-01-23T10:30:52.576Z,58.83
2019-01-23T10:33:23.013Z,55.80
2019-01-23T10:35:56.726Z,57.00
2019-01-23T10:38:27.589Z,61.80
2019-01-23T10:40:57.066Z,60.33
2019-01-23T10:43:26.836Z,61.30
2019-01-23T10:45:59.122Z,53.20
2019-01-23T10:48:49.439Z,58.55
2019-01-23T10:51:19.379Z,57.00
2019-01-23T10:53:47.763Z,54.90
2019-01-23T10:56:18.237Z,60.03
2019-01-23T10:58:48.219Z,52.45
2019-01-23T11:01:17.192Z,58.68
2019-01-23T11:03:47.491Z,57.10
2019-01-23T11:06:17.655Z,63.17
2019-01-23T11:08:49.215Z,59.65
2019-01-23T11:11:17.668Z,60.75
2019-01-23T11:13:47.833Z,53.08
2019-01-23T11:16:17.614Z,53.90
2019-01-23T11:18:50.750Z,62.70
2019-01-23T11:21:19.342Z,50.23
2019-01-23T11:23:50.714Z,53.85
2019-01-23T11:26:24.354Z,47.40
2019-01-23T11:28:54.428Z,49.40
2019-01-23T11:31:24.669Z,63.00
2019-01-23T11:33:54.617Z,55.00
2019-01-23T11:36:23.970Z,52.87
2019-01-23T11:38:53.250Z,51.50
2019-01-23T11:41:27.085Z,54.83
2019-01-23T11:43:56.346Z,50.63
2019-01-23T11:46:25.517Z,54.90
2019-01-23T11:48:54.837Z,59.07
2019-01-23T11:51:25.950Z,52.87
2019-01-23T11:53:58.737Z,54.00
2019-01-23T11:56:27.948Z,54.33
2019-01-23T11:58:58.295Z,51.80
2019-01-23T12:01:29.342Z,56.63
2019-01-23T12:04:03.810Z,58.37
2019-01-23T12:06:34.049Z,51.20
2019-01-23T12:09:05.473Z,54.87
2019-01-23T12:11:34.574Z,51.73
2019-01-23T12:14:06.487Z,50.93
2019-01-23T12:16:36.567Z,46.23
2019-01-23T12:19:06.481Z,51.70
2019-01-23T12:21:36.879Z,52.50
2019-01-23T12:24:06.842Z,54.17
2019-01-23T12:26:40.388Z,49.67
2019-01-23T12:29:09.901Z,53.60
2019-01-23T12:31:39.882Z,62.97
2019-01-23T12:34:08.477Z,54.30
2019-01-23T12:36:37.964Z,55.80
2019-01-23T12:39:08.496Z,54.87
2019-01-23T12:41:38.164Z,53.10
2019-01-23T12:44:09.243Z,52.00
2019-01-23T12:46:38.226Z,59.00
2019-01-23T12:49:08.229Z,61.20
2019-01-23T12:51:38.202Z,63.67
2019-01-23T12:54:07.717Z,54.70
2019-01-23T12:56:37.482Z,62.67
2019-01-23T12:59:07.233Z,61.43
2019-01-23T13:01:41.958Z,61.77
2019-01-23T13:04:09.198Z,59.17
2019-01-23T13:06:38.785Z,59.70
2019-01-23T13:09:09.360Z,62.50
2019-01-23T13:11:39.004Z,60.67
2019-01-23T13:14:09.340Z,64.03
2019-01-23T13:16:39.469Z,60.17
2019-01-23T13:19:09.465Z,58.50
2019-01-23T13:21:39.741Z,62.20
2019-01-23T13:24:10.090Z,62.20
2019-01-23T13:26:39.161Z,61.63
2019-01-23T13:29:09.467Z,69.03
2019-01-23T13:31:39.545Z,61.80
2019-01-23T13:34:10.056Z,59.83
2019-01-23T13:36:40.179Z,60.00
2019-01-23T13:39:10.820Z,62.27
2019-01-23T13:41:41.087Z,58.77
2019-01-23T13:44:12.330Z,66.40
2019-01-23T13:46:42.720Z,57.57
2019-01-23T13:49:11.997Z,62.00
2019-01-23T13:51:43.080Z,67.63
2019-01-23T13:54:13.888Z,64.30
2019-01-23T13:56:44.077Z,64.67
2019-01-23T13:59:13.316Z,65.20
2019-01-23T14:01:43.373Z,64.57
2019-01-23T14:04:13.224Z,65.27
2019-01-23T14:06:43.569Z,60.20
2019-01-23T14:09:12.116Z,55.77
2019-01-23T14:11:42.513Z,63.13
2019-01-23T14:14:11.842Z,61.73
2019-01-23T14:16:46.598Z,52.80
2019-01-23T14:19:16.094Z,62.90
2019-01-23T14:21:52.346Z,59.57
2019-01-23T14:24:21.608Z,64.03
2019-01-23T14:26:51.801Z,60.87
2019-01-23T14:29:22.738Z,63.77
2019-01-23T14:31:52.560Z,53.10
2019-01-23T14:34:21.774Z,59.37
2019-01-23T14:36:56.017Z,65.47
2019-01-23T14:39:26.525Z,59.57
2019-01-23T14:41:55.527Z,66.03
2019-01-23T14:44:24.522Z,55.50
2019-01-23T14:46:55.052Z,58.80
2019-01-23T14:49:24.835Z,63.47
2019-01-23T14:51:54.531Z,56.00
2019-01-23T14:54:24.837Z,65.53
2019-01-23T14:56:54.411Z,59.77
2019-01-23T14:59:24.203Z,61.60
2019-01-23T15:01:53.925Z,61.47
2019-01-23T15:04:23.983Z,55.13
2019-01-23T15:06:54.426Z,66.70
2019-01-23T15:09:24.295Z,61.73
2019-01-23T15:11:54.250Z,55.20
2019-01-23T15:14:23.453Z,57.53
2019-01-23T15:16:53.672Z,59.70
2019-01-23T15:19:23.957Z,58.90
2019-01-23T15:21:53.248Z,66.40
2019-01-23T15:24:24.259Z,73.13
2019-01-23T15:26:54.262Z,58.33
2019-01-23T15:29:24.722Z,59.20
2019-01-23T15:31:54.374Z,63.20
2019-01-23T15:34:24.068Z,61.03
2019-01-23T15:36:54.237Z,67.90
2019-01-23T15:39:24.853Z,64.57
2019-01-23T15:41:57.886Z,63.10
2019-01-23T15:44:27.507Z,79.17
2019-01-23T15:47:00.566Z,69.57
2019-01-23T15:49:30.740Z,64.47
2019-01-23T15:52:00.531Z,61.27
2019-01-23T15:54:32.778Z,53.70
2019-01-23T15:57:02.511Z,68.60
2019-01-23T15:59:34.872Z,64.70
2019-01-23T16:02:05.821Z,65.52
2019-01-23T16:04:35.269Z,63.70
2019-01-23T16:07:04.611Z,59.93
2019-01-23T16:09:34.565Z,60.28
2019-01-23T16:12:05.825Z,70.80
2019-01-23T16:14:35.442Z,55.48
2019-01-23T16:17:04.337Z,61.00
2019-01-23T16:19:33.810Z,60.47
2019-01-23T16:22:03.814Z,60.77
2019-01-23T16:24:32.867Z,57.87
2019-01-23T16:27:03.308Z,59.33
2019-01-23T16:29:35.549Z,54.50
2019-01-23T16:32:06.911Z,52.88
2019-01-23T16:34:36.630Z,55.30
2019-01-23T16:37:06.572Z,60.50
2019-01-23T16:39:36.325Z,59.63
2019-01-23T16:42:05.898Z,60.58
2019-01-23T16:44:35.616Z,67.15
2019-01-23T16:47:05.747Z,64.53
2019-01-23T16:49:40.620Z,65.70
2019-01-23T16:52:10.222Z,60.83
2019-01-23T16:54:40.713Z,65.55
2019-01-23T16:57:09.372Z,59.77
2019-01-23T16:59:39.381Z,50.85
2019-01-23T17:02:08.904Z,57.08
2019-01-23T17:04:40.655Z,64.42
2019-01-23T17:07:10.559Z,72.67
2019-01-23T17:09:40.488Z,58.58
2019-01-23T17:12:10.017Z,63.83
2019-01-23T17:14:39.724Z,69.90
2019-01-23T17:17:09.337Z,59.90
2019-01-23T17:19:38.006Z,65.67
2019-01-23T17:22:07.624Z,68.02
2019-01-23T17:24:38.314Z,62.20
2019-01-23T17:27:07.833Z,66.47
2019-01-23T17:29:38.088Z,65.35
2019-01-23T17:32:07.595Z,63.10
2019-01-23T17:34:38.474Z,64.47
2019-01-23T17:37:07.987Z,66.67
2019-01-23T17:39:37.708Z,61.48
2019-01-23T17:42:07.586Z,71.37
2019-01-23T17:44:36.497Z,60.90
2019-01-23T17:47:08.246Z,63.70
2019-01-23T17:49:37.074Z,61.45
2019-01-23T17:52:07.164Z,72.08
2019-01-23T17:54:36.840Z,72.75
2019-01-23T17:57:05.561Z,63.80
2019-01-23T17:59:36.613Z,59.33
2019-01-23T18:02:06.577Z,66.15
2019-01-23T18:04:36.685Z,79.10
2019-01-23T18:07:07.478Z,71.70
2019-01-23T18:09:57.854Z,74.22
2019-01-23T18:12:26.815Z,61.33
2019-01-23T18:14:58.282Z,77.70
2019-01-23T18:17:26.958Z,80.75
2019-01-23T18:19:57.542Z,76.87
2019-01-23T18:22:25.926Z,77.30
2019-01-23T18:24:54.704Z,67.20
2019-01-23T18:27:24.011Z,84.42
2019-01-23T18:29:52.752Z,73.67
2019-01-23T18:32:21.706Z,71.60
2019-01-23T18:35:07.068Z,77.10
2019-01-23T18:38:14.026Z,80.35
2019-01-23T18:41:02.334Z,75.03
2019-01-23T18:44:05.101Z,70.40
2019-01-23T18:46:46.430Z,83.37
2019-01-23T18:49:49.827Z,91.08
2019-01-23T18:52:19.753Z,81.20
2019-01-23T18:54:49.558Z,78.87
2019-01-23T18:57:33.175Z,79.35
2019-01-23T19:00:03.024Z,79.47
2019-01-23T19:02:33.255Z,89.58
2019-01-23T19:05:02.958Z,103.47
2019-01-23T19:07:38.405Z,83.33
2019-01-23T19:10:13.467Z,107.58
2019-01-23T19:12:43.838Z,85.62
2019-01-23T19:15:18.401Z,87.82
2019-01-23T19:17:48.964Z,91.57
2019-01-23T19:20:20.307Z,97.88
2019-01-23T19:22:49.339Z,86.50
2019-01-23T19:25:17.835Z,86.10
2019-01-23T19:27:48.059Z,90.47
2019-01-23T19:30:22.490Z,88.12
2019-01-23T19:32:52.842Z,82.05
2019-01-23T19:35:22.525Z,86.78
2019-01-23T19:37:52.833Z,84.45
2019-01-23T19:40:23.045Z,84.30
2019-01-23T19:42:53.712Z,88.35
2019-01-23T19:45:24.141Z,96.12
2019-01-23T19:47:54.543Z,90.22
2019-01-23T19:50:24.385Z,89.03
2019-01-23T19:52:54.689Z,89.90
2019-01-23T19:55:23.187Z,88.72
2019-01-23T19:57:52.499Z,102.12
2019-01-23T20:00:22.797Z,110.48
2019-01-23T20:02:52.593Z,86.80
2019-01-23T20:05:27.119Z,91.60
2019-01-23T20:07:57.678Z,92.27
2019-01-23T20:10:27.785Z,88.78
2019-01-23T20:12:57.347Z,85.47
2019-01-23T20:18:02.858Z,85.55
2019-01-23T20:20:33.660Z,77.22
2019-01-23T20:23:03.258Z,84.10
2019-01-23T20:25:32.672Z,77.40
2019-01-23T20:28:02.124Z,81.05
2019-01-23T20:30:34.557Z,88.52
2019-01-23T20:33:04.569Z,80.07
2019-01-23T20:35:35.212Z,80.32
2019-01-23T20:38:05.266Z,78.28
2019-01-23T20:40:36.612Z,68.60
2019-01-23T20:43:06.550Z,73.52
2019-01-23T20:45:37.943Z,78.72
2019-01-23T20:48:08.085Z,83.72
2019-01-23T20:50:38.552Z,74.62
2019-01-23T20:53:08.628Z,75.32
2019-01-23T20:55:39.224Z,75.60
2019-01-23T20:58:10.832Z,76.72
2019-01-23T21:00:41.032Z,78.35
2019-01-23T21:03:10.999Z,77.05
2019-01-23T21:05:41.110Z,72.60
2019-01-23T21:08:12.701Z,75.37
2019-01-23T21:10:43.088Z,77.95
2019-01-23T21:13:15.192Z,73.75
2019-01-23T21:15:45.281Z,71.28
2019-01-23T21:18:15.229Z,90.03
2019-01-23T21:20:46.073Z,81.90
2019-01-23T21:23:16.555Z,92.08
2019-01-23T21:25:46.566Z,84.92
2019-01-23T21:28:16.729Z,75.83
2019-01-23T21:30:47.132Z,74.37
2019-01-23T21:33:17.474Z,85.05
2019-01-23T21:35:45.904Z,73.50
2019-01-23T21:38:16.162Z,76.67
2019-01-23T21:40:46.302Z,75.35
2019-01-23T21:43:16.427Z,72.50
2019-01-23T21:45:46.417Z,62.78
2019-01-23T21:48:17.708Z,74.87
2019-01-23T21:50:48.516Z,78.92
2019-01-23T21:53:18.926Z,69.97
2019-01-23T21:55:49.030Z,86.40
2019-01-23T21:58:20.583Z,64.95
2019-01-23T22:00:50.718Z,78.83
2019-01-23T22:03:20.938Z,71.10
2019-01-23T22:05:50.846Z,72.17
2019-01-23T22:08:23.327Z,78.72
2019-01-23T22:10:53.415Z,82.55
2019-01-23T22:13:25.011Z,75.42
2019-01-23T22:15:54.916Z,71.35
2019-01-23T22:18:25.854Z,75.83
2019-01-23T22:20:55.899Z,76.07
2019-01-23T22:23:26.239Z,83.67
2019-01-23T22:25:56.729Z,74.12
2019-01-23T22:28:27.077Z,80.25
2019-01-23T22:30:57.157Z,74.07
2019-01-23T22:33:27.205Z,74.82
2019-01-23T22:35:57.854Z,77.97
2019-01-23T22:38:27.802Z,94.77
2019-01-23T22:40:57.893Z,74.55
2019-01-23T22:43:27.677Z,76.37
2019-01-23T22:45:58.432Z,79.42
2019-01-23T22:48:28.582Z,84.03
2019-01-23T22:50:59.086Z,85.20
2019-01-23T22:53:29.291Z,73.57
2019-01-23T22:55:59.683Z,81.00
2019-01-23T22:58:29.998Z,83.67
2019-01-23T23:01:06.952Z,77.37
2019-01-23T23:03:37.218Z,87.92
2019-01-23T23:06:06.327Z,87.25
2019-01-23T23:08:36.819Z,87.75
2019-01-23T23:11:07.625Z,85.17
2019-01-23T23:13:37.699Z,86.80
2019-01-23T23:16:08.106Z,79.35
2019-01-23T23:18:38.318Z,80.87
2019-01-23T23:21:12.057Z,81.53
2019-01-23T23:23:42.091Z,90.07
2019-01-23T23:26:13.311Z,75.37
2019-01-23T23:28:43.456Z,75.60
2019-01-23T23:31:12.603Z,79.85
2019-01-23T23:33:43.159Z,78.92
2019-01-23T23:36:13.408Z,78.92
2019-01-23T23:38:42.955Z,86.32
2019-01-23T23:41:13.168Z,74.37
2019-01-23T23:43:44.220Z,73.65
2019-01-23T23:46:14.337Z,74.65
2019-01-23T23:48:44.855Z,83.05
2019-01-23T23:51:15.071Z,87.70
2019-01-23T23:53:46.146Z,84.30
2019-01-23T23:56:16.457Z,78.62
2019-01-23T23:58:46.661Z,80.97
